Time;durP1;ratioP1;P1;durP2;ratioP2;P2;SDS_P1;SDS_P2;PMS_P1;PMS_P2;Temp;Humidity;BMP_temperature;BMP_pressure;BME280_temperature;BME280_humidity;BME280_pressure;Samples;Min_cycle;Max_cycle;Signal;HPM_P1;HPM_P2
2023/08/25 00:00:59;;;;;;;11.50;7.90;;;;;;;;;;772063;180;920473;-56
2023/08/25 00:03:25;;;;;;;12.17;8.33;;;;;;;;;;771745;177;919266;-61
2023/08/25 00:05:51;;;;;;;14.33;8.13;;;;;;;;;;759699;182;1123845;-61
2023/08/25 00:08:17;;;;;;;12.30;7.77;;;;;;;;;;777083;180;900732;-62
2023/08/25 00:10:42;;;;;;;10.37;7.53;;;;;;;;;;773379;178;919985;-61
2023/08/25 00:13:08;;;;;;;10.20;7.30;;;;;;;;;;773435;181;920279;-61
2023/08/25 00:15:34;;;;;;;10.93;8.40;;;;;;;;;;779371;178;916142;-61
2023/08/25 00:18:00;;;;;;;10.93;8.63;;;;;;;;;;774675;180;919520;-57
2023/08/25 00:20:26;;;;;;;10.97;7.80;;;;;;;;;;771523;178;799029;-55
2023/08/25 00:22:52;;;;;;;10.80;7.50;;;;;;;;;;775590;180;919910;-56
2023/08/25 00:25:18;;;;;;;10.00;7.67;;;;;;;;;;761695;184;919450;-56
2023/08/25 00:27:43;;;;;;;9.90;7.07;;;;;;;;;;766252;182;918347;-56
2023/08/25 00:30:11;;;;;;;10.53;7.40;;;;;;;;;;774086;180;935962;-61
2023/08/25 00:32:36;;;;;;;10.37;7.20;;;;;;;;;;774708;180;911980;-55
2023/08/25 00:35:01;;;;;;;11.40;7.17;;;;;;;;;;773430;178;921257;-56
2023/08/25 00:37:27;;;;;;;9.73;7.73;;;;;;;;;;773008;177;940029;-62
2023/08/25 00:39:53;;;;;;;8.63;7.07;;;;;;;;;;779331;178;920208;-56
2023/08/25 00:42:19;;;;;;;19.33;7.07;;;;;;;;;;774171;178;923122;-56
2023/08/25 00:44:45;;;;;;;12.77;8.18;;;;;;;;;;770146;181;918482;-62
2023/08/25 00:47:11;;;;;;;10.10;7.37;;;;;;;;;;775879;180;919455;-61
2023/08/25 00:49:37;;;;;;;10.47;6.37;;;;;;;;;;770307;180;921368;-56
2023/08/25 00:52:03;;;;;;;12.47;7.10;;;;;;;;;;773906;181;922333;-61
2023/08/25 00:54:28;;;;;;;10.77;7.57;;;;;;;;;;775666;181;918243;-56
2023/08/25 00:56:54;;;;;;;14.10;6.93;;;;;;;;;;776075;180;919374;-62
2023/08/25 00:59:20;;;;;;;9.30;6.70;;;;;;;;;;770395;180;817535;-60
2023/08/25 01:01:46;;;;;;;8.47;7.10;;;;;;;;;;771742;180;1132893;-61
2023/08/25 01:04:12;;;;;;;11.73;7.80;;;;;;;;;;778396;180;919888;-65
2023/08/25 01:06:37;;;;;;;10.87;8.10;;;;;;;;;;777981;177;842698;-63
2023/08/25 01:09:04;;;;;;;10.40;7.67;;;;;;;;;;773690;177;920803;-62
2023/08/25 01:11:33;;;;;;;17.40;7.67;;;;;;;;;;776375;177;919582;-56
2023/08/25 01:14:03;;;;;;;10.37;7.90;;;;;;;;;;772398;178;920442;-56
2023/08/25 01:16:29;;;;;;;9.93;7.93;;;;;;;;;;771401;180;920522;-63
2023/08/25 01:18:55;;;;;;;17.33;8.23;;;;;;;;;;772707;180;928408;-62
2023/08/25 01:21:21;;;;;;;16.20;6.93;;;;;;;;;;778669;181;920089;-63
2023/08/25 01:23:52;;;;;;;8.97;7.03;;;;;;;;;;774447;180;920740;-63
2023/08/25 01:26:18;;;;;;;12.17;8.00;;;;;;;;;;773691;178;817284;-62
2023/08/25 01:28:43;;;;;;;10.33;7.70;;;;;;;;;;768054;182;915704;-63
2023/08/25 01:31:09;;;;;;;12.27;8.60;;;;;;;;;;768666;180;918831;-57
2023/08/25 01:33:35;;;;;;;10.13;7.67;;;;;;;;;;775438;180;935495;-56
2023/08/25 01:36:01;;;;;;;11.37;7.23;;;;;;;;;;773060;180;921694;-62
2023/08/25 01:38:30;;;;;;;8.60;7.77;;;;;;;;;;775304;181;917905;-62
2023/08/25 01:40:58;;;;;;;10.63;7.57;;;;;;;;;;769111;181;918965;-57
2023/08/25 01:43:24;;;;;;;11.00;8.00;;;;;;;;;;757538;180;921366;-63
2023/08/25 01:45:50;;;;;;;7.53;6.40;;;;;;;;;;778369;180;876839;-64
2023/08/25 01:48:16;;;;;;;9.52;7.25;;;;;;;;;;760248;177;903785;-63
2023/08/25 01:50:42;;;;;;;12.82;6.62;;;;;;;;;;760918;177;923158;-63
2023/08/25 01:53:08;;;;;;;10.83;7.37;;;;;;;;;;773447;177;909445;-63
2023/08/25 01:55:33;;;;;;;8.37;7.30;;;;;;;;;;767720;180;909836;-63
2023/08/25 01:57:59;;;;;;;8.87;7.23;;;;;;;;;;771845;180;920318;-56
2023/08/25 02:00:25;;;;;;;12.33;7.17;;;;;;;;;;772293;181;919558;-57
2023/08/25 02:02:51;;;;;;;18.40;7.10;;;;;;;;;;777243;180;941581;-63
2023/08/25 02:05:17;;;;;;;10.20;8.23;;;;;;;;;;770995;181;1021073;-63
2023/08/25 02:07:43;;;;;;;10.30;7.97;;;;;;;;;;771744;178;896715;-56
2023/08/25 02:10:09;;;;;;;11.67;7.70;;;;;;;;;;782198;178;815459;-63
2023/08/25 02:12:35;;;;;;;10.20;6.80;;;;;;;;;;774830;178;919312;-63
2023/08/25 02:15:01;;;;;;;12.37;7.60;;;;;;;;;;771539;180;919739;-62
2023/08/25 02:17:27;;;;;;;13.33;8.33;;;;;;;;;;780755;181;919127;-57
2023/08/25 02:19:53;;;;;;;9.13;8.20;;;;;;;;;;779193;180;810530;-57
2023/08/25 02:22:19;;;;;;;10.57;6.83;;;;;;;;;;775198;177;913746;-62
2023/08/25 02:24:45;;;;;;;10.70;7.80;;;;;;;;;;768637;180;920932;-62
2023/08/25 02:27:11;;;;;;;10.73;8.37;;;;;;;;;;778205;180;919818;-57
2023/08/25 02:29:36;;;;;;;10.77;7.53;;;;;;;;;;762258;182;919315;-56
2023/08/25 02:32:02;;;;;;;9.10;7.27;;;;;;;;;;768428;180;919259;-56
2023/08/25 02:34:28;;;;;;;10.37;7.60;;;;;;;;;;776608;181;919503;-63
2023/08/25 02:36:54;;;;;;;9.73;7.20;;;;;;;;;;772865;178;920449;-57
2023/08/25 02:39:20;;;;;;;11.47;7.67;;;;;;;;;;772543;180;914926;-56
2023/08/25 02:41:46;;;;;;;7.80;7.00;;;;;;;;;;775182;180;916884;-63
2023/08/25 02:44:11;;;;;;;11.97;7.90;;;;;;;;;;776395;180;817537;-63
2023/08/25 02:46:37;;;;;;;10.13;8.07;;;;;;;;;;775523;180;824189;-56
2023/08/25 02:49:03;;;;;;;10.53;7.67;;;;;;;;;;770407;180;919691;-56
2023/08/25 02:51:29;;;;;;;10.17;7.63;;;;;;;;;;776861;181;919606;-62
2023/08/25 02:53:55;;;;;;;11.83;7.77;;;;;;;;;;770142;180;919128;-57
2023/08/25 02:56:21;;;;;;;15.00;8.07;;;;;;;;;;774496;179;927575;-57
2023/08/25 02:58:46;;;;;;;13.23;8.00;;;;;;;;;;775300;179;810090;-58
2023/08/25 03:01:12;;;;;;;9.60;7.80;;;;;;;;;;774532;177;919243;-57
2023/08/25 03:03:38;;;;;;;8.73;7.03;;;;;;;;;;768301;180;922105;-64
2023/08/25 03:06:04;;;;;;;11.83;8.70;;;;;;;;;;779003;180;920276;-58
2023/08/25 03:08:30;;;;;;;8.83;7.77;;;;;;;;;;773500;179;918819;-64
2023/08/25 03:10:56;;;;;;;11.20;7.23;;;;;;;;;;774354;180;919524;-55
2023/08/25 03:13:22;;;;;;;9.60;8.07;;;;;;;;;;773272;177;921047;-62
2023/08/25 03:15:50;;;;;;;12.27;8.50;;;;;;;;;;778377;180;815642;-56
2023/08/25 03:18:14;;;;;;;12.37;7.77;;;;;;;;;;773609;179;821309;-63
2023/08/25 03:20:40;;;;;;;10.77;8.07;;;;;;;;;;771494;180;919808;-62
2023/08/25 03:23:06;;;;;;;11.80;7.13;;;;;;;;;;774495;181;816982;-62
2023/08/25 03:25:32;;;;;;;11.30;8.17;;;;;;;;;;772218;179;918672;-63
2023/08/25 03:28:00;;;;;;;10.07;8.13;;;;;;;;;;767580;179;916158;-62
2023/08/25 03:30:23;;;;;;;9.20;6.93;;;;;;;;;;781435;177;635042;-56
2023/08/25 03:32:49;;;;;;;8.50;7.30;;;;;;;;;;777306;179;618963;-57
2023/08/25 03:35:15;;;;;;;11.80;7.47;;;;;;;;;;764989;180;917147;-63
2023/08/25 03:37:41;;;;;;;10.67;8.37;;;;;;;;;;775982;181;919245;-56
2023/08/25 03:40:10;;;;;;;11.80;7.50;;;;;;;;;;780027;177;814816;-64
2023/08/25 03:42:33;;;;;;;11.03;7.90;;;;;;;;;;774772;178;920012;-64
2023/08/25 03:44:59;;;;;;;9.03;7.40;;;;;;;;;;770791;181;917582;-62
2023/08/25 03:47:24;;;;;;;10.83;7.43;;;;;;;;;;780198;180;919495;-64
2023/08/25 03:49:50;;;;;;;20.97;12.20;;;;;;;;;;773613;180;920091;-62
2023/08/25 03:52:16;;;;;;;22.90;12.07;;;;;;;;;;771000;180;920297;-57
2023/08/25 03:54:42;;;;;;;17.20;12.70;;;;;;;;;;778137;181;818649;-64
2023/08/25 03:57:08;;;;;;;20.93;11.50;;;;;;;;;;777403;180;918351;-64
2023/08/25 03:59:34;;;;;;;16.77;10.33;;;;;;;;;;774067;179;932353;-63
2023/08/25 04:02:01;;;;;;;14.73;9.90;;;;;;;;;;774979;178;872063;-64
2023/08/25 04:04:25;;;;;;;12.10;8.47;;;;;;;;;;769392;180;815698;-63
2023/08/25 04:06:52;;;;;;;10.90;8.40;;;;;;;;;;772021;180;918964;-57
2023/08/25 04:09:17;;;;;;;11.63;8.67;;;;;;;;;;774017;177;938213;-57
2023/08/25 04:11:43;;;;;;;13.10;8.90;;;;;;;;;;778078;181;879772;-56
2023/08/25 04:14:09;;;;;;;11.07;7.67;;;;;;;;;;770297;181;918939;-57
2023/08/25 04:16:35;;;;;;;28.30;9.43;;;;;;;;;;772488;180;1017540;-63
2023/08/25 04:19:00;;;;;;;10.27;7.63;;;;;;;;;;777993;181;915284;-64
2023/08/25 04:21:26;;;;;;;10.10;7.53;;;;;;;;;;772289;180;918702;-62
2023/08/25 04:23:52;;;;;;;9.77;7.87;;;;;;;;;;774098;177;919767;-62
2023/08/25 04:26:18;;;;;;;11.50;8.00;;;;;;;;;;774832;181;797407;-57
2023/08/25 04:28:44;;;;;;;11.10;8.30;;;;;;;;;;760486;181;921363;-57
2023/08/25 04:31:10;;;;;;;8.93;7.53;;;;;;;;;;769827;180;928054;-57
2023/08/25 04:33:36;;;;;;;8.80;7.03;;;;;;;;;;761414;181;868570;-62
2023/08/25 04:36:03;;;;;;;11.60;7.40;;;;;;;;;;776138;178;896983;-57
2023/08/25 04:38:27;;;;;;;9.03;7.50;;;;;;;;;;772850;178;910859;-63
2023/08/25 04:40:53;;;;;;;11.80;9.60;;;;;;;;;;775179;179;918655;-57
2023/08/25 04:43:19;;;;;;;13.87;9.53;;;;;;;;;;780128;180;919711;-57
2023/08/25 04:45:45;;;;;;;12.30;9.17;;;;;;;;;;772056;177;917615;-57
2023/08/25 04:48:11;;;;;;;21.63;10.50;;;;;;;;;;776726;177;919235;-63
2023/08/25 04:50:36;;;;;;;17.87;9.80;;;;;;;;;;778731;180;922429;-57
2023/08/25 04:53:02;;;;;;;12.27;8.80;;;;;;;;;;775987;180;918765;-63
2023/08/25 04:55:28;;;;;;;12.40;9.25;;;;;;;;;;767945;180;929857;-57
2023/08/25 04:57:55;;;;;;;13.60;8.17;;;;;;;;;;776400;181;920751;-56
2023/08/25 05:00:20;;;;;;;15.53;8.47;;;;;;;;;;746857;181;905655;-56
2023/08/25 05:02:46;;;;;;;9.83;7.83;;;;;;;;;;764552;177;920476;-63
2023/08/25 05:05:12;;;;;;;12.00;7.97;;;;;;;;;;768040;181;918857;-62
2023/08/25 05:07:37;;;;;;;11.97;7.30;;;;;;;;;;775857;180;819688;-63
2023/08/25 05:10:03;;;;;;;14.20;8.03;;;;;;;;;;776101;177;818444;-57
2023/08/25 05:12:29;;;;;;;10.73;7.90;;;;;;;;;;774522;180;919847;-63
2023/08/25 05:14:55;;;;;;;12.23;8.40;;;;;;;;;;779531;180;919230;-63
2023/08/25 05:17:21;;;;;;;9.97;8.20;;;;;;;;;;775789;180;919335;-63
2023/08/25 05:19:47;;;;;;;9.17;7.40;;;;;;;;;;773447;178;918479;-55
2023/08/25 05:22:13;;;;;;;10.33;8.20;;;;;;;;;;772201;181;919985;-56
2023/08/25 05:24:39;;;;;;;10.37;8.03;;;;;;;;;;762860;182;919135;-63
2023/08/25 05:27:04;;;;;;;10.20;8.32;;;;;;;;;;767114;180;908005;-64
2023/08/25 05:29:30;;;;;;;14.70;8.43;;;;;;;;;;773955;180;919120;-63
2023/08/25 05:31:56;;;;;;;8.23;7.40;;;;;;;;;;769547;181;917697;-65
2023/08/25 05:34:22;;;;;;;10.97;8.17;;;;;;;;;;768570;181;894290;-57
2023/08/25 05:36:48;;;;;;;10.97;7.90;;;;;;;;;;774477;181;919180;-57
2023/08/25 05:39:14;;;;;;;10.83;8.03;;;;;;;;;;778173;178;915621;-58
2023/08/25 05:41:39;;;;;;;10.30;7.97;;;;;;;;;;768632;181;912656;-64
2023/08/25 05:44:05;;;;;;;15.23;8.13;;;;;;;;;;760812;181;1028206;-57
2023/08/25 05:46:31;;;;;;;9.40;8.50;;;;;;;;;;778018;178;1020122;-58
2023/08/25 05:48:57;;;;;;;15.90;9.93;;;;;;;;;;777915;177;916457;-65
2023/08/25 05:51:24;;;;;;;9.97;8.97;;;;;;;;;;773870;179;915800;-64
2023/08/25 05:53:49;;;;;;;11.00;8.70;;;;;;;;;;778778;179;915525;-64
2023/08/25 05:56:15;;;;;;;12.17;8.97;;;;;;;;;;776241;177;916782;-64
2023/08/25 05:58:41;;;;;;;13.03;8.90;;;;;;;;;;772474;180;919281;-64
2023/08/25 06:01:07;;;;;;;11.07;8.13;;;;;;;;;;770749;180;916046;-57
2023/08/25 06:03:33;;;;;;;11.60;9.80;;;;;;;;;;780022;180;918685;-64
2023/08/25 06:05:59;;;;;;;11.00;9.47;;;;;;;;;;769230;180;922100;-57
2023/08/25 06:08:24;;;;;;;11.50;8.43;;;;;;;;;;771698;181;919530;-57
2023/08/25 06:10:52;;;;;;;17.77;11.33;;;;;;;;;;778771;178;918062;-65
2023/08/25 06:13:17;;;;;;;11.63;9.90;;;;;;;;;;775612;177;919254;-63
2023/08/25 06:15:42;;;;;;;12.60;9.70;;;;;;;;;;757458;184;918719;-65
2023/08/25 06:18:08;;;;;;;12.07;10.80;;;;;;;;;;770806;181;919719;-57
2023/08/25 06:20:35;;;;;;;13.40;9.40;;;;;;;;;;770961;181;920435;-64
2023/08/25 06:23:00;;;;;;;13.10;10.20;;;;;;;;;;773940;177;919721;-65
2023/08/25 06:25:26;;;;;;;12.17;10.90;;;;;;;;;;775052;178;816905;-58
2023/08/25 06:27:52;;;;;;;13.70;10.20;;;;;;;;;;769657;180;907373;-58
2023/08/25 06:30:18;;;;;;;12.43;9.53;;;;;;;;;;773939;180;902867;-64
2023/08/25 06:32:44;;;;;;;20.40;9.90;;;;;;;;;;771746;180;919546;-64
2023/08/25 06:35:11;;;;;;;16.43;10.17;;;;;;;;;;773800;181;931188;-58
2023/08/25 06:37:36;;;;;;;11.40;10.20;;;;;;;;;;772497;178;917973;-66
2023/08/25 06:40:05;;;;;;;12.67;9.60;;;;;;;;;;776170;177;815597;-57
2023/08/25 06:42:30;;;;;;;13.60;10.30;;;;;;;;;;779427;177;802501;-58
2023/08/25 06:44:56;;;;;;;9.67;8.77;;;;;;;;;;762956;181;917686;-66
2023/08/25 06:47:22;;;;;;;12.63;10.20;;;;;;;;;;766165;180;919394;-65
2023/08/25 06:49:47;;;;;;;13.10;10.03;;;;;;;;;;767771;177;919394;-58
2023/08/25 06:52:13;;;;;;;12.33;10.33;;;;;;;;;;765404;180;919572;-66
2023/08/25 06:54:39;;;;;;;11.67;9.60;;;;;;;;;;771999;180;919368;-56
2023/08/25 06:57:05;;;;;;;13.30;9.13;;;;;;;;;;774234;178;917215;-57
2023/08/25 06:59:31;;;;;;;12.57;10.50;;;;;;;;;;776119;179;917479;-66
2023/08/25 07:01:57;;;;;;;12.83;10.00;;;;;;;;;;772772;180;918150;-65
2023/08/25 07:04:22;;;;;;;10.10;9.10;;;;;;;;;;774202;180;919258;-56
2023/08/25 07:06:48;;;;;;;11.33;9.63;;;;;;;;;;781125;177;909867;-57
2023/08/25 07:09:14;;;;;;;14.33;10.47;;;;;;;;;;777093;178;916611;-57
2023/08/25 07:11:40;;;;;;;15.30;8.98;;;;;;;;;;771131;178;919085;-59
2023/08/25 07:14:06;;;;;;;11.70;10.50;;;;;;;;;;775822;180;919429;-58
2023/08/25 07:16:32;;;;;;;12.47;9.40;;;;;;;;;;773077;181;820526;-57
2023/08/25 07:18:57;;;;;;;11.33;9.23;;;;;;;;;;770129;181;920176;-64
2023/08/25 07:21:24;;;;;;;16.83;9.33;;;;;;;;;;775130;178;917402;-64
2023/08/25 07:23:49;;;;;;;10.17;8.77;;;;;;;;;;781919;178;630381;-64
2023/08/25 07:26:15;;;;;;;13.57;9.67;;;;;;;;;;764018;181;896256;-58
2023/08/25 07:28:41;;;;;;;11.53;8.73;;;;;;;;;;775958;180;817760;-65
2023/08/25 07:31:07;;;;;;;16.67;9.47;;;;;;;;;;778086;179;918739;-58
2023/08/25 07:33:33;;;;;;;11.07;8.60;;;;;;;;;;777014;176;817825;-65
2023/08/25 07:35:58;;;;;;;10.47;8.60;;;;;;;;;;775035;179;918572;-57
2023/08/25 07:38:24;;;;;;;11.77;9.27;;;;;;;;;;773732;179;920781;-58
2023/08/25 07:40:50;;;;;;;10.67;8.90;;;;;;;;;;766096;180;923367;-57
2023/08/25 07:43:16;;;;;;;9.43;8.43;;;;;;;;;;771802;180;925855;-64
2023/08/25 07:45:43;;;;;;;10.80;8.63;;;;;;;;;;767658;180;919918;-64
2023/08/25 07:48:08;;;;;;;10.43;8.80;;;;;;;;;;777389;180;923663;-66
2023/08/25 07:50:34;;;;;;;10.10;9.07;;;;;;;;;;774431;178;912337;-64
2023/08/25 07:52:59;;;;;;;13.10;8.63;;;;;;;;;;772271;180;917349;-57
2023/08/25 07:55:25;;;;;;;15.77;9.47;;;;;;;;;;778966;180;921792;-57
2023/08/25 07:57:51;;;;;;;11.17;9.07;;;;;;;;;;774909;180;919868;-63
2023/08/25 08:00:17;;;;;;;9.43;8.43;;;;;;;;;;774869;180;916087;-63
2023/08/25 08:02:43;;;;;;;12.90;8.77;;;;;;;;;;779046;180;917552;-57
2023/08/25 08:05:10;;;;;;;10.80;8.60;;;;;;;;;;765076;177;893075;-64
2023/08/25 08:07:35;;;;;;;10.67;8.93;;;;;;;;;;771291;179;919270;-66
2023/08/25 08:10:01;;;;;;;11.50;9.70;;;;;;;;;;773795;180;919862;-58
2023/08/25 08:12:27;;;;;;;10.03;8.57;;;;;;;;;;766614;180;918584;-57
2023/08/25 08:14:53;;;;;;;10.20;8.30;;;;;;;;;;765868;180;919880;-58
2023/08/25 08:17:18;;;;;;;13.40;9.63;;;;;;;;;;776028;181;919040;-58
2023/08/25 08:19:44;;;;;;;10.83;9.50;;;;;;;;;;773874;180;915055;-57
2023/08/25 08:22:10;;;;;;;10.90;9.50;;;;;;;;;;773984;177;822748;-57
2023/08/25 08:24:36;;;;;;;9.43;7.87;;;;;;;;;;770573;180;921741;-56
2023/08/25 08:27:02;;;;;;;12.90;8.57;;;;;;;;;;772981;180;919055;-57
2023/08/25 08:29:28;;;;;;;11.30;9.07;;;;;;;;;;773814;178;870953;-65
2023/08/25 08:31:55;;;;;;;13.60;9.00;;;;;;;;;;774879;179;919135;-64
2023/08/25 08:34:20;;;;;;;13.88;9.35;;;;;;;;;;776490;178;918176;-58
2023/08/25 08:36:47;;;;;;;10.70;9.60;;;;;;;;;;776870;178;919353;-64
2023/08/25 08:39:12;;;;;;;9.60;8.60;;;;;;;;;;775112;180;919289;-66
2023/08/25 08:41:38;;;;;;;9.60;8.60;;;;;;;;;;772959;178;919521;-64
2023/08/25 08:44:04;;;;;;;11.10;8.87;;;;;;;;;;776071;179;937540;-65
2023/08/25 08:46:30;;;;;;;8.77;7.87;;;;;;;;;;762366;181;917245;-58
2023/08/25 08:48:56;;;;;;;15.03;7.77;;;;;;;;;;771507;178;908780;-58
2023/08/25 08:51:21;;;;;;;9.97;8.07;;;;;;;;;;778306;177;914488;-58
2023/08/25 08:53:47;;;;;;;12.10;7.50;;;;;;;;;;774531;177;914404;-57
2023/08/25 08:56:13;;;;;;;8.70;7.77;;;;;;;;;;775521;178;913629;-65
2023/08/25 08:58:39;;;;;;;12.87;8.40;;;;;;;;;;774900;178;911540;-66
2023/08/25 09:01:05;;;;;;;10.53;6.97;;;;;;;;;;775757;178;807517;-57
2023/08/25 09:03:31;;;;;;;10.73;7.67;;;;;;;;;;773616;178;908250;-58
2023/08/25 09:05:57;;;;;;;10.77;7.93;;;;;;;;;;771730;181;908984;-65
2023/08/25 09:08:22;;;;;;;10.53;7.30;;;;;;;;;;768031;181;913891;-65
2023/08/25 09:10:48;;;;;;;8.43;7.17;;;;;;;;;;773185;179;914255;-66
2023/08/25 09:13:14;;;;;;;9.23;6.87;;;;;;;;;;774990;177;816792;-67
2023/08/25 09:15:40;;;;;;;9.10;7.43;;;;;;;;;;779119;180;919529;-57
2023/08/25 09:18:06;;;;;;;8.47;6.77;;;;;;;;;;773085;180;917030;-65
2023/08/25 09:20:33;;;;;;;11.27;7.87;;;;;;;;;;760619;184;874995;-58
2023/08/25 09:22:58;;;;;;;10.00;6.30;;;;;;;;;;772322;180;919248;-58
2023/08/25 09:25:24;;;;;;;8.93;7.20;;;;;;;;;;773690;177;917802;-67
2023/08/25 09:27:57;;;;;;;15.33;7.20;;;;;;;;;;773555;180;919971;-58
2023/08/25 09:30:23;;;;;;;12.73;7.23;;;;;;;;;;775016;180;925392;-58
2023/08/25 09:32:49;;;;;;;6.87;6.10;;;;;;;;;;779313;177;917320;-58
2023/08/25 09:35:18;;;;;;;8.10;6.57;;;;;;;;;;773878;178;922013;-58
2023/08/25 09:37:41;;;;;;;8.00;6.10;;;;;;;;;;774363;180;918484;-57
2023/08/25 09:40:09;;;;;;;12.90;6.60;;;;;;;;;;779466;180;831066;-58
2023/08/25 09:42:33;;;;;;;7.80;5.70;;;;;;;;;;768795;180;920462;-57
2023/08/25 09:44:59;;;;;;;7.60;6.30;;;;;;;;;;765279;181;925085;-57
2023/08/25 09:47:25;;;;;;;12.67;6.50;;;;;;;;;;775844;176;918803;-56
2023/08/25 09:49:51;;;;;;;11.70;6.27;;;;;;;;;;774913;180;917286;-57
2023/08/25 09:52:17;;;;;;;10.97;6.57;;;;;;;;;;765213;182;919041;-64
2023/08/25 09:54:42;;;;;;;10.20;5.80;;;;;;;;;;774636;178;919269;-65
2023/08/25 09:57:08;;;;;;;8.80;5.10;;;;;;;;;;778646;180;920448;-64
2023/08/25 09:59:34;;;;;;;6.37;5.00;;;;;;;;;;766827;180;919633;-57
2023/08/25 10:02:00;;;;;;;7.70;5.03;;;;;;;;;;769502;181;919421;-57
2023/08/25 10:04:26;;;;;;;11.10;5.00;;;;;;;;;;777403;180;920135;-65
2023/08/25 10:06:52;;;;;;;9.43;4.33;;;;;;;;;;772921;177;920159;-58
2023/08/25 10:09:17;;;;;;;8.40;4.73;;;;;;;;;;775964;178;623666;-58
2023/08/25 10:11:43;;;;;;;5.77;4.73;;;;;;;;;;777222;177;635334;-58
2023/08/25 10:14:10;;;;;;;8.27;4.07;;;;;;;;;;772635;180;872570;-56
2023/08/25 10:16:36;;;;;;;8.63;5.00;;;;;;;;;;772893;180;956958;-57
2023/08/25 10:19:01;;;;;;;9.03;4.60;;;;;;;;;;773216;181;917282;-58
2023/08/25 10:21:27;;;;;;;9.30;4.20;;;;;;;;;;778593;181;920650;-57
2023/08/25 10:23:53;;;;;;;6.57;4.20;;;;;;;;;;774098;180;923647;-64
2023/08/25 10:26:18;;;;;;;8.53;4.83;;;;;;;;;;773293;178;915519;-64
2023/08/25 10:28:44;;;;;;;6.43;4.43;;;;;;;;;;774508;181;948198;-64
2023/08/25 10:31:10;;;;;;;6.47;4.50;;;;;;;;;;771175;180;922640;-64
2023/08/25 10:33:42;;;;;;;7.83;4.40;;;;;;;;;;771989;180;915779;-57
2023/08/25 10:36:08;;;;;;;7.10;4.93;;;;;;;;;;776452;179;920492;-63
2023/08/25 10:38:33;;;;;;;8.73;4.70;;;;;;;;;;779678;180;917744;-58
2023/08/25 10:40:59;;;;;;;7.90;4.33;;;;;;;;;;771373;181;820985;-64
2023/08/25 10:43:26;;;;;;;7.97;5.30;;;;;;;;;;775652;177;919211;-64
2023/08/25 10:45:52;;;;;;;6.97;4.70;;;;;;;;;;776412;180;918759;-64
2023/08/25 10:48:19;;;;;;;8.20;4.97;;;;;;;;;;774632;181;919275;-59
2023/08/25 10:50:43;;;;;;;7.93;4.67;;;;;;;;;;770356;181;816621;-64
2023/08/25 10:53:15;;;;;;;7.37;4.10;;;;;;;;;;782542;180;715647;-56
2023/08/25 10:55:41;;;;;;;9.87;4.67;;;;;;;;;;782194;180;883634;-64
2023/08/25 10:58:07;;;;;;;5.63;4.87;;;;;;;;;;771102;177;916740;-57
2023/08/25 11:00:33;;;;;;;4.75;4.18;;;;;;;;;;771355;180;921365;-57
2023/08/25 11:02:59;;;;;;;9.82;4.18;;;;;;;;;;778124;181;918809;-58
2023/08/25 11:05:43;;;;;;;9.07;6.37;;;;;;;;;;770744;180;919040;-64
2023/08/25 11:08:13;;;;;;;4.53;3.90;;;;;;;;;;774139;180;919049;-65
2023/08/25 11:10:39;;;;;;;6.57;3.93;;;;;;;;;;774077;177;923518;-58
2023/08/25 11:13:05;;;;;;;3.90;3.00;;;;;;;;;;773504;179;919870;-59
2023/08/25 11:15:31;;;;;;;6.47;3.40;;;;;;;;;;775850;181;918968;-58
2023/08/25 11:17:57;;;;;;;4.00;2.93;;;;;;;;;;773049;180;917314;-63
2023/08/25 11:20:23;;;;;;;5.63;3.07;;;;;;;;;;777160;180;918332;-58
2023/08/25 11:22:51;;;;;;;5.60;2.60;;;;;;;;;;777232;180;919066;-67
2023/08/25 11:25:17;;;;;;;5.13;3.00;;;;;;;;;;769944;180;919543;-59
2023/08/25 11:27:43;;;;;;;4.50;2.83;;;;;;;;;;772872;180;921322;-59
2023/08/25 11:30:09;;;;;;;5.87;3.60;;;;;;;;;;773677;180;911904;-58
2023/08/25 11:32:36;;;;;;;5.57;3.03;;;;;;;;;;775318;180;919898;-58
2023/08/25 11:35:03;;;;;;;6.87;2.90;;;;;;;;;;767580;180;817341;-58
2023/08/25 11:37:28;;;;;;;4.37;3.07;;;;;;;;;;773672;177;919308;-59
2023/08/25 11:39:54;;;;;;;6.30;2.83;;;;;;;;;;780035;180;915067;-58
2023/08/25 11:42:21;;;;;;;6.47;2.60;;;;;;;;;;773846;180;919977;-59
2023/08/25 11:44:46;;;;;;;4.57;2.77;;;;;;;;;;769972;177;917782;-58
2023/08/25 11:47:12;;;;;;;6.50;2.80;;;;;;;;;;780555;177;919033;-67
2023/08/25 11:49:39;;;;;;;4.83;3.00;;;;;;;;;;775321;177;919291;-60
2023/08/25 11:52:06;;;;;;;6.00;3.03;;;;;;;;;;773255;177;817484;-66
2023/08/25 11:54:31;;;;;;;6.70;3.17;;;;;;;;;;766871;181;909693;-60
2023/08/25 11:56:57;;;;;;;4.57;2.70;;;;;;;;;;771923;181;910357;-67
2023/08/25 11:59:29;;;;;;;4.40;2.13;;;;;;;;;;767195;178;916955;-60
2023/08/25 12:01:49;;;;;;;4.90;2.47;;;;;;;;;;768801;176;919359;-66
2023/08/25 12:04:19;;;;;;;10.73;2.47;;;;;;;;;;771834;180;921786;-59
2023/08/25 12:06:44;;;;;;;6.87;3.37;;;;;;;;;;773804;181;919490;-58
2023/08/25 12:09:10;;;;;;;7.03;2.20;;;;;;;;;;775698;180;920262;-59
2023/08/25 12:11:36;;;;;;;4.73;2.50;;;;;;;;;;779799;178;918178;-67
2023/08/25 12:14:02;;;;;;;3.63;2.23;;;;;;;;;;771470;181;919152;-60
2023/08/25 12:16:28;;;;;;;4.70;2.53;;;;;;;;;;772332;181;919226;-69
2023/08/25 12:18:54;;;;;;;3.87;2.30;;;;;;;;;;767781;182;924303;-66
2023/08/25 12:21:19;;;;;;;4.80;2.70;;;;;;;;;;783656;177;921452;-67
2023/08/25 12:23:45;;;;;;;4.45;2.00;;;;;;;;;;767910;180;921928;-60
2023/08/25 12:26:11;;;;;;;3.57;2.10;;;;;;;;;;769844;181;920357;-60
2023/08/25 12:28:38;;;;;;;7.23;1.83;;;;;;;;;;776802;180;819027;-67
2023/08/25 12:31:03;;;;;;;6.90;1.93;;;;;;;;;;774080;180;919327;-60
2023/08/25 12:33:29;;;;;;;3.27;1.90;;;;;;;;;;776350;177;815129;-67
2023/08/25 12:35:55;;;;;;;3.50;2.37;;;;;;;;;;769626;181;819435;-60
2023/08/25 12:38:20;;;;;;;5.10;2.20;;;;;;;;;;769419;180;819278;-67
2023/08/25 12:40:46;;;;;;;3.58;1.83;;;;;;;;;;766817;181;919329;-66
2023/08/25 12:43:12;;;;;;;3.73;2.10;;;;;;;;;;769536;181;915398;-60
2023/08/25 12:45:38;;;;;;;5.60;1.90;;;;;;;;;;771081;180;920023;-67
2023/08/25 12:48:04;;;;;;;4.83;2.30;;;;;;;;;;771323;180;918264;-66
2023/08/25 12:50:30;;;;;;;5.87;1.80;;;;;;;;;;773577;177;918807;-60
2023/08/25 12:52:56;;;;;;;5.17;2.00;;;;;;;;;;778318;180;913589;-68
2023/08/25 12:55:22;;;;;;;4.17;1.90;;;;;;;;;;769618;181;821964;-60
2023/08/25 12:57:49;;;;;;;3.87;1.90;;;;;;;;;;762882;180;919197;-60
2023/08/25 13:00:14;;;;;;;3.63;1.70;;;;;;;;;;777215;181;920206;-66
2023/08/25 13:02:40;;;;;;;4.13;1.83;;;;;;;;;;778130;180;920219;-58
2023/08/25 13:05:09;;;;;;;5.33;2.00;;;;;;;;;;772805;180;918525;-59
2023/08/25 13:07:31;;;;;;;5.27;2.23;;;;;;;;;;778138;180;920071;-59
2023/08/25 13:09:57;;;;;;;5.33;1.90;;;;;;;;;;773834;178;920085;-66
2023/08/25 13:12:23;;;;;;;2.87;1.97;;;;;;;;;;771059;180;828263;-60
2023/08/25 13:14:49;;;;;;;4.10;2.10;;;;;;;;;;767269;180;1020606;-66
2023/08/25 13:17:15;;;;;;;6.00;1.83;;;;;;;;;;778197;180;814455;-58
2023/08/25 13:19:41;;;;;;;6.97;2.23;;;;;;;;;;775072;178;906959;-59
2023/08/25 13:22:07;;;;;;;5.27;2.00;;;;;;;;;;773828;181;909981;-59
2023/08/25 13:24:32;;;;;;;4.37;2.07;;;;;;;;;;780016;179;810665;-59
2023/08/25 13:26:59;;;;;;;3.67;2.07;;;;;;;;;;775052;177;919854;-67
2023/08/25 13:29:25;;;;;;;4.97;2.40;;;;;;;;;;755891;184;911610;-66
2023/08/25 13:31:51;;;;;;;4.53;2.23;;;;;;;;;;774954;180;807033;-58
2023/08/25 13:34:17;;;;;;;4.40;2.30;;;;;;;;;;766256;180;813294;-66
2023/08/25 13:36:43;;;;;;;4.20;2.00;;;;;;;;;;772765;180;922085;-67
2023/08/25 13:39:09;;;;;;;3.27;2.00;;;;;;;;;;773631;180;918416;-60
2023/08/25 13:41:35;;;;;;;4.47;2.20;;;;;;;;;;773864;180;927090;-66
2023/08/25 13:44:02;;;;;;;4.43;2.07;;;;;;;;;;773131;180;924285;-59
2023/08/25 13:46:27;;;;;;;4.87;2.10;;;;;;;;;;773238;180;918473;-66
2023/08/25 13:48:52;;;;;;;5.40;2.10;;;;;;;;;;779065;181;818521;-65
2023/08/25 13:51:18;;;;;;;7.40;2.07;;;;;;;;;;774564;181;820500;-59
2023/08/25 13:53:45;;;;;;;4.83;2.10;;;;;;;;;;773536;180;918713;-58
2023/08/25 13:56:10;;;;;;;3.97;2.10;;;;;;;;;;777078;177;919164;-65
2023/08/25 13:58:36;;;;;;;4.20;1.90;;;;;;;;;;763528;181;820455;-69
2023/08/25 14:01:02;;;;;;;4.17;2.37;;;;;;;;;;770715;181;918314;-66
2023/08/25 14:03:27;;;;;;;4.60;2.20;;;;;;;;;;775360;180;629634;-69
2023/08/25 14:05:54;;;;;;;3.30;2.10;;;;;;;;;;769189;181;916397;-67
2023/08/25 14:08:19;;;;;;;9.20;2.57;;;;;;;;;;772561;180;913548;-58
2023/08/25 14:10:45;;;;;;;7.10;2.40;;;;;;;;;;777011;179;920935;-67
2023/08/25 14:13:11;;;;;;;5.53;2.43;;;;;;;;;;777778;180;894408;-66